Helliar — 2EPP5 — position and weather

sailwx.info

Track history (hours):
 
Tides and Currents Weather Stations Pressure Air Temp Water Temp Dewpoint Dewpoint Depression Visibility Wind Speed Wind Dir Waves Ship Positions

Helliar

Last reported at 2017-Feb-23 20:33 UTC. Time now 2017-Feb-24 19:33 UTC.
Position N 57°43' W 001°36'.

Length 122 m; draft 5.3 m.

Type: Cargo ship. MMSI: 235087119.

Date/timePositionNaut miles runAvg speedWind from/ knotsBaromVisibWave heightAir tempDewpointWater temp
2017-Feb-23 20:33N 57°43' W 001°36'1212.3
2017-Feb-23 19:33N 57°31' W 001°39'1312.7
2017-Feb-23 18:32N 57°19' W 001°50'1313.3
2017-Feb-23 17:34N 57°09' W 002°04'1 0.7
2017-Feb-23 16:31N 57°09' W 002°05'0 0.0
2017-Feb-23 15:31N 57°09' W 002°05'0 0.0
2017-Feb-23 14:31N 57°09' W 002°05'0 0.0
2017-Feb-23 13:31N 57°09' W 002°05'0 0.0
2017-Feb-23 12:31N 57°09' W 002°05'0 0.0
2017-Feb-23 11:31N 57°09' W 002°05'0 0.0
2017-Feb-23 10:31N 57°09' W 002°05'0 0.0
2017-Feb-23 09:31N 57°09' W 002°05'0 0.0
2017-Feb-23 08:31N 57°09' W 002°05'0 0.4
2017-Feb-23 07:33N 57°09' W 002°05'1110.5
2017-Feb-23 06:33N 57°16' W 001°52'1211.9
2017-Feb-23 05:33N 57°27' W 001°42'1211.6
2017-Feb-23 04:33N 57°39' W 001°45'1212.1
2017-Feb-23 03:32N 57°50' W 001°53'5312.8
2017-Feb-22 23:23N 58°40' W 002°26'1113.5
2017-Feb-22 22:34N 58°51' W 002°34'1212.2
2017-Feb-22 21:33N 59°00' W 002°49'5 4.8
2017-Feb-22 20:32N 58°60' W 002°58'0 0.0
2017-Feb-22 19:32N 58°60' W 002°58'0 0.0
2017-Feb-22 18:32N 58°60' W 002°58'0 0.0
2017-Feb-22 17:32N 58°60' W 002°58'0 0.0
2017-Feb-22 16:32N 58°60' W 002°58'0 0.0
2017-Feb-22 15:32N 58°60' W 002°58'0 0.0
2017-Feb-22 14:32N 58°60' W 002°58'0 0.0
2017-Feb-22 13:32N 58°60' W 002°58'0 0.0
2017-Feb-22 12:32N 58°60' W 002°58'0 0.0
2017-Feb-22 11:32N 58°60' W 002°58'0 0.0
2017-Feb-22 10:32N 58°60' W 002°58'0 0.0
2017-Feb-22 09:32N 58°60' W 002°58'0 0.0
2017-Feb-22 08:32N 58°60' W 002°58'0 0.0
2017-Feb-22 07:32N 58°60' W 002°58'0 0.0
2017-Feb-22 06:32N 58°60' W 002°58'0 0.0
2017-Feb-22 05:32N 58°60' W 002°58'0 0.0
2017-Feb-22 04:32N 58°60' W 002°58'0 0.0
2017-Feb-22 03:32N 58°60' W 002°58'0 0.0
2017-Feb-22 02:32N 58°60' W 002°58'0 0.0
2017-Feb-22 01:32N 58°60' W 002°58'0 0.4
2017-Feb-22 00:33N 59°00' W 002°58'1111.1
2017-Feb-21 23:34N 58°56' W 002°38'7213.2
2017-Feb-21 18:06N 57°48' W 001°51'814.1
2017-Feb-21 17:33N 57°41' W 001°47'1414.3
2017-Feb-21 16:33N 57°27' W 001°42'1515.4
2017-Feb-21 15:33N 57°14' W 001°57'7 6.5
2017-Feb-21 14:31N 57°09' W 002°05'0 0.0
2017-Feb-21 13:34N 57°09' W 002°05'0 0.0
2017-Feb-21 12:33N 57°09' W 002°05'0 0.0
2017-Feb-21 11:31N 57°09' W 002°05'0 0.0
2017-Feb-21 10:31N 57°09' W 002°05'0 0.0
2017-Feb-21 09:34N 57°09' W 002°05'0 0.0
2017-Feb-21 08:33N 57°09' W 002°05'0 0.0
2017-Feb-21 07:34N 57°09' W 002°05'0 0.0
2017-Feb-21 06:34N 57°09' W 002°05'1 1.3
2017-Feb-21 05:33N 57°09' W 002°03'1412.1
2017-Feb-21 04:24N 57°20' W 001°46'1012.2
2017-Feb-21 03:33N 57°29' W 001°38'7512.6
2017-Feb-20 21:33N 58°39' W 002°33'1413.1
2017-Feb-20 20:27N 58°53' W 002°36'1112.0
2017-Feb-20 19:33N 59°01' W 002°51'4 4.0
2017-Feb-20 18:33N 58°60' W 002°58'0 0.0
2017-Feb-20 17:33N 58°60' W 002°58'0 0.0
2017-Feb-20 16:33N 58°60' W 002°58'0 0.0
2017-Feb-20 15:33N 58°60' W 002°58'0 0.0
2017-Feb-20 14:33N 58°60' W 002°58'0 0.0
2017-Feb-20 13:33N 58°60' W 002°58'0 0.0
2017-Feb-20 12:33N 58°60' W 002°58'0 0.0
2017-Feb-20 11:33N 58°60' W 002°58'0 0.0
2017-Feb-20 10:33N 58°60' W 002°58'0 0.0
2017-Feb-20 09:33N 58°60' W 002°58'0 0.0
2017-Feb-20 08:33N 58°60' W 002°58'0 0.0
2017-Feb-20 07:33N 58°60' W 002°58'0 0.0
2017-Feb-20 06:33N 58°60' W 002°58'0 0.0
2017-Feb-20 05:33N 58°60' W 002°58'0 0.0
2017-Feb-20 04:33N 58°60' W 002°58'0 0.0
2017-Feb-20 03:33N 58°60' W 002°58'0 0.0
2017-Feb-20 02:33N 58°60' W 002°58'0 0.0
2017-Feb-20 01:33N 58°60' W 002°58'0 0.0
2017-Feb-20 00:33N 58°60' W 002°58'2 2.0
2017-Feb-19 23:33N 59°01' W 002°56'1010.3
2017-Feb-19 22:33N 58°59' W 002°36'3 2.5
2017-Feb-19 21:15N 58°60' W 002°30'811.7
2017-Feb-19 20:32N 59°07' W 002°25'89 3.5
2017-Feb-18 19:05N 57°42' W 001°33'612.1
2017-Feb-18 18:33N 57°36' W 001°35'1211.7
2017-Feb-18 17:33N 57°25' W 001°42'1211.8
2017-Feb-18 16:33N 57°15' W 001°53'9 9.0
2017-Feb-18 15:33N 57°09' W 002°05'0 0.0
2017-Feb-18 14:33N 57°09' W 002°05'0 0.0
2017-Feb-18 13:33N 57°09' W 002°05'0 0.0
2017-Feb-18 12:33N 57°09' W 002°05'0 0.0
2017-Feb-18 11:33N 57°09' W 002°05'0 0.0
2017-Feb-18 10:33N 57°09' W 002°05'0 0.0
2017-Feb-18 09:33N 57°09' W 002°05'0 0.0
2017-Feb-18 08:33N 57°09' W 002°05'0 0.4
2017-Feb-18 07:34N 57°08' W 002°04'1211.2
2017-Feb-18 06:30N 57°18' W 001°51'1212.7
2017-Feb-18 05:33N 57°28' W 001°40'1312.8
2017-Feb-18 04:33N 57°41' W 001°36'3 0.1
2017-Feb-16 20:30N 57°44' W 001°36'1414.4
2017-Feb-16 19:33N 57°30' W 001°39'1414.2
2017-Feb-16 18:33N 57°18' W 001°52'1211.6
2017-Feb-16 17:33N 57°09' W 002°05'0 0.2
2017-Feb-16 16:33N 57°09' W 002°05'0 0.0
2017-Feb-16 15:33N 57°09' W 002°05'0 0.0
2017-Feb-16 14:33N 57°09' W 002°05'0 0.0
2017-Feb-16 13:33N 57°09' W 002°05'0 0.0
2017-Feb-16 12:33N 57°09' W 002°05'0 0.0
2017-Feb-16 11:33N 57°09' W 002°05'0 0.0
2017-Feb-16 10:33N 57°09' W 002°05'0 0.0
2017-Feb-16 09:33N 57°09' W 002°05'0 0.0
2017-Feb-16 08:33N 57°09' W 002°05'2 1.6
2017-Feb-16 07:33N 57°09' W 002°02'1312.5
2017-Feb-16 06:33N 57°19' W 001°48'1414.0
2017-Feb-16 05:33N 57°32' W 001°39'1514.9
2017-Feb-16 04:33N 57°47' W 001°37'80 3.5
2017-Feb-15 05:33N 59°02' W 002°32'1212.0
2017-Feb-15 04:33N 59°01' W 002°55'2 2.1
2017-Feb-15 03:33N 58°60' W 002°58'0 0.0
2017-Feb-15 02:33N 58°60' W 002°58'8 7.7
2017-Feb-15 01:33N 58°59' W 002°44'1212.2
2017-Feb-15 00:33N 58°49' W 002°32'6214.3
2017-Feb-14 20:12N 57°50' W 001°53'1016.0
2017-Feb-14 19:34N 57°40' W 001°47'1515.4
2017-Feb-14 18:34N 57°25' W 001°42'1514.4
2017-Feb-14 17:32N 57°13' W 001°57'6 6.1
2017-Feb-14 16:32N 57°09' W 002°05'0 0.0
2017-Feb-14 15:32N 57°09' W 002°05'0 0.0
2017-Feb-14 14:32N 57°09' W 002°05'0 0.0
2017-Feb-14 13:32N 57°09' W 002°05'0 0.0
2017-Feb-14 12:32N 57°09' W 002°05'0 0.0
2017-Feb-14 11:32N 57°09' W 002°05'0 0.0
2017-Feb-14 10:32N 57°09' W 002°05'0 0.0
2017-Feb-14 09:33N 57°09' W 002°05'3 2.5
2017-Feb-14 08:33N 57°10' W 002°01'1211.9
2017-Feb-14 07:33N 57°20' W 001°49'1211.7
2017-Feb-14 06:33N 57°30' W 001°39'1211.9
2017-Feb-14 05:33N 57°42' W 001°36'  
Track history (hours):
 
Tides and Currents Weather Stations Pressure Air Temp Water Temp Dewpoint Dewpoint Depression Visibility Wind Speed Wind Dir Waves Ship Positions

Helliar

Last reported at 2017-Feb-23 20:33 UTC. Time now 2017-Feb-24 19:33 UTC.
Position N 57°43' W 001°36'.

Length 122 m; draft 5.3 m.

Type: Cargo ship. MMSI: 235087119.

Date/timePositionNaut miles runAvg speedWind from/ knotsBaromVisibWave heightAir tempDewpointWater temp
2017-Feb-23 20:33N 57°43' W 001°36'1212.3
2017-Feb-23 19:33N 57°31' W 001°39'1312.7
2017-Feb-23 18:32N 57°19' W 001°50'1313.3
2017-Feb-23 17:34N 57°09' W 002°04'1 0.7
2017-Feb-23 16:31N 57°09' W 002°05'0 0.0
2017-Feb-23 15:31N 57°09' W 002°05'0 0.0
2017-Feb-23 14:31N 57°09' W 002°05'0 0.0
2017-Feb-23 13:31N 57°09' W 002°05'0 0.0
2017-Feb-23 12:31N 57°09' W 002°05'0 0.0
2017-Feb-23 11:31N 57°09' W 002°05'0 0.0
2017-Feb-23 10:31N 57°09' W 002°05'0 0.0
2017-Feb-23 09:31N 57°09' W 002°05'0 0.0
2017-Feb-23 08:31N 57°09' W 002°05'0 0.4
2017-Feb-23 07:33N 57°09' W 002°05'1110.5
2017-Feb-23 06:33N 57°16' W 001°52'1211.9
2017-Feb-23 05:33N 57°27' W 001°42'1211.6
2017-Feb-23 04:33N 57°39' W 001°45'1212.1
2017-Feb-23 03:32N 57°50' W 001°53'5312.8
2017-Feb-22 23:23N 58°40' W 002°26'1113.5
2017-Feb-22 22:34N 58°51' W 002°34'1212.2
2017-Feb-22 21:33N 59°00' W 002°49'5 4.8
2017-Feb-22 20:32N 58°60' W 002°58'0 0.0
2017-Feb-22 19:32N 58°60' W 002°58'0 0.0
2017-Feb-22 18:32N 58°60' W 002°58'0 0.0
2017-Feb-22 17:32N 58°60' W 002°58'0 0.0
2017-Feb-22 16:32N 58°60' W 002°58'0 0.0
2017-Feb-22 15:32N 58°60' W 002°58'0 0.0
2017-Feb-22 14:32N 58°60' W 002°58'0 0.0
2017-Feb-22 13:32N 58°60' W 002°58'0 0.0
2017-Feb-22 12:32N 58°60' W 002°58'0 0.0
2017-Feb-22 11:32N 58°60' W 002°58'0 0.0
2017-Feb-22 10:32N 58°60' W 002°58'0 0.0
2017-Feb-22 09:32N 58°60' W 002°58'0 0.0
2017-Feb-22 08:32N 58°60' W 002°58'0 0.0
2017-Feb-22 07:32N 58°60' W 002°58'0 0.0
2017-Feb-22 06:32N 58°60' W 002°58'0 0.0
2017-Feb-22 05:32N 58°60' W 002°58'0 0.0
2017-Feb-22 04:32N 58°60' W 002°58'0 0.0
2017-Feb-22 03:32N 58°60' W 002°58'0 0.0
2017-Feb-22 02:32N 58°60' W 002°58'0 0.0
2017-Feb-22 01:32N 58°60' W 002°58'0 0.4
2017-Feb-22 00:33N 59°00' W 002°58'1111.1
2017-Feb-21 23:34N 58°56' W 002°38'7213.2
2017-Feb-21 18:06N 57°48' W 001°51'814.1
2017-Feb-21 17:33N 57°41' W 001°47'1414.3
2017-Feb-21 16:33N 57°27' W 001°42'1515.4
2017-Feb-21 15:33N 57°14' W 001°57'7 6.5
2017-Feb-21 14:31N 57°09' W 002°05'0 0.0
2017-Feb-21 13:34N 57°09' W 002°05'0 0.0
2017-Feb-21 12:33N 57°09' W 002°05'0 0.0
2017-Feb-21 11:31N 57°09' W 002°05'0 0.0
2017-Feb-21 10:31N 57°09' W 002°05'0 0.0
2017-Feb-21 09:34N 57°09' W 002°05'0 0.0
2017-Feb-21 08:33N 57°09' W 002°05'0 0.0
2017-Feb-21 07:34N 57°09' W 002°05'0 0.0
2017-Feb-21 06:34N 57°09' W 002°05'1 1.3
2017-Feb-21 05:33N 57°09' W 002°03'1412.1
2017-Feb-21 04:24N 57°20' W 001°46'1012.2
2017-Feb-21 03:33N 57°29' W 001°38'7512.6
2017-Feb-20 21:33N 58°39' W 002°33'1413.1
2017-Feb-20 20:27N 58°53' W 002°36'1112.0
2017-Feb-20 19:33N 59°01' W 002°51'4 4.0
2017-Feb-20 18:33N 58°60' W 002°58'0 0.0
2017-Feb-20 17:33N 58°60' W 002°58'0 0.0
2017-Feb-20 16:33N 58°60' W 002°58'0 0.0
2017-Feb-20 15:33N 58°60' W 002°58'0 0.0
2017-Feb-20 14:33N 58°60' W 002°58'0 0.0
2017-Feb-20 13:33N 58°60' W 002°58'0 0.0
2017-Feb-20 12:33N 58°60' W 002°58'0 0.0
2017-Feb-20 11:33N 58°60' W 002°58'0 0.0
2017-Feb-20 10:33N 58°60' W 002°58'0 0.0
2017-Feb-20 09:33N 58°60' W 002°58'0 0.0
2017-Feb-20 08:33N 58°60' W 002°58'0 0.0
2017-Feb-20 07:33N 58°60' W 002°58'0 0.0
2017-Feb-20 06:33N 58°60' W 002°58'0 0.0
2017-Feb-20 05:33N 58°60' W 002°58'0 0.0
2017-Feb-20 04:33N 58°60' W 002°58'0 0.0
2017-Feb-20 03:33N 58°60' W 002°58'0 0.0
2017-Feb-20 02:33N 58°60' W 002°58'0 0.0
2017-Feb-20 01:33N 58°60' W 002°58'0 0.0
2017-Feb-20 00:33N 58°60' W 002°58'2 2.0
2017-Feb-19 23:33N 59°01' W 002°56'1010.3
2017-Feb-19 22:33N 58°59' W 002°36'3 2.5
2017-Feb-19 21:15N 58°60' W 002°30'811.7
2017-Feb-19 20:32N 59°07' W 002°25'89 3.5
2017-Feb-18 19:05N 57°42' W 001°33'612.1
2017-Feb-18 18:33N 57°36' W 001°35'1211.7
2017-Feb-18 17:33N 57°25' W 001°42'1211.8
2017-Feb-18 16:33N 57°15' W 001°53'9 9.0
2017-Feb-18 15:33N 57°09' W 002°05'0 0.0
2017-Feb-18 14:33N 57°09' W 002°05'0 0.0
2017-Feb-18 13:33N 57°09' W 002°05'0 0.0
2017-Feb-18 12:33N 57°09' W 002°05'0 0.0
2017-Feb-18 11:33N 57°09' W 002°05'0 0.0
2017-Feb-18 10:33N 57°09' W 002°05'0 0.0
2017-Feb-18 09:33N 57°09' W 002°05'0 0.0
2017-Feb-18 08:33N 57°09' W 002°05'0 0.4
2017-Feb-18 07:34N 57°08' W 002°04'1211.2
2017-Feb-18 06:30N 57°18' W 001°51'1212.7
2017-Feb-18 05:33N 57°28' W 001°40'1312.8
2017-Feb-18 04:33N 57°41' W 001°36'3 0.1
2017-Feb-16 20:30N 57°44' W 001°36'1414.4
2017-Feb-16 19:33N 57°30' W 001°39'1414.2
2017-Feb-16 18:33N 57°18' W 001°52'1211.6
2017-Feb-16 17:33N 57°09' W 002°05'0 0.2
2017-Feb-16 16:33N 57°09' W 002°05'0 0.0
2017-Feb-16 15:33N 57°09' W 002°05'0 0.0
2017-Feb-16 14:33N 57°09' W 002°05'0 0.0
2017-Feb-16 13:33N 57°09' W 002°05'0 0.0
2017-Feb-16 12:33N 57°09' W 002°05'0 0.0
2017-Feb-16 11:33N 57°09' W 002°05'0 0.0
2017-Feb-16 10:33N 57°09' W 002°05'0 0.0
2017-Feb-16 09:33N 57°09' W 002°05'0 0.0
2017-Feb-16 08:33N 57°09' W 002°05'2 1.6
2017-Feb-16 07:33N 57°09' W 002°02'1312.5
2017-Feb-16 06:33N 57°19' W 001°48'1414.0
2017-Feb-16 05:33N 57°32' W 001°39'1514.9
2017-Feb-16 04:33N 57°47' W 001°37'80 3.5
2017-Feb-15 05:33N 59°02' W 002°32'1212.0
2017-Feb-15 04:33N 59°01' W 002°55'2 2.1
2017-Feb-15 03:33N 58°60' W 002°58'0 0.0
2017-Feb-15 02:33N 58°60' W 002°58'8 7.7
2017-Feb-15 01:33N 58°59' W 002°44'1212.2
2017-Feb-15 00:33N 58°49' W 002°32'6214.3
2017-Feb-14 20:12N 57°50' W 001°53'1016.0
2017-Feb-14 19:34N 57°40' W 001°47'1515.4
2017-Feb-14 18:34N 57°25' W 001°42'1514.4
2017-Feb-14 17:32N 57°13' W 001°57'6 6.1
2017-Feb-14 16:32N 57°09' W 002°05'0 0.0
2017-Feb-14 15:32N 57°09' W 002°05'0 0.0
2017-Feb-14 14:32N 57°09' W 002°05'0 0.0
2017-Feb-14 13:32N 57°09' W 002°05'0 0.0
2017-Feb-14 12:32N 57°09' W 002°05'0 0.0
2017-Feb-14 11:32N 57°09' W 002°05'0 0.0
2017-Feb-14 10:32N 57°09' W 002°05'0 0.0
2017-Feb-14 09:33N 57°09' W 002°05'3 2.5
2017-Feb-14 08:33N 57°10' W 002°01'1211.9
2017-Feb-14 07:33N 57°20' W 001°49'1211.7
2017-Feb-14 06:33N 57°30' W 001°39'1211.9
2017-Feb-14 05:33N 57°42' W 001°36'  

Dump ship's entire track history